Terminal Aerodrome Forecast
Issued by NWS

Home | Current Version | Previous Version | Text Only | Print | Product List | Glossary On
Versions: 1 2 3 4 5 6 7 8 9 10 11 12 13 14 15 16 17 18 19 20 21 22 23 24 25 26 27 28 29
000
FTAK31 PAFA 240416 AAA
TAFAQT
TAF AMD
PAQT 240416Z 2404/2424 01005KT 1SM BR VV002
      TEMPO 2404/2408 4SM BR SCT005
     FM241900 07012KT 5SM BR BKN006
     FM242100 07012KT P6SM SCT008=

USA.gov is the U.S. government's official web portal to all federal, state and local government web resources and services.